createdAt,value
2018-08-27T00:01:22.022Z,12.50
2018-08-27T00:03:51.074Z,12.40
2018-08-27T00:06:19.989Z,12.40
2018-08-27T00:08:49.024Z,12.30
2018-08-27T00:11:18.258Z,12.20
2018-08-27T00:13:47.494Z,12.10
2018-08-27T00:16:16.568Z,12.10
2018-08-27T00:18:45.601Z,12.10
2018-08-27T00:21:14.445Z,12.20
2018-08-27T00:23:43.496Z,12.20
2018-08-27T00:26:12.135Z,12.10
2018-08-27T00:28:40.786Z,12.10
2018-08-27T00:31:09.674Z,12.10
2018-08-27T00:33:38.345Z,12.10
2018-08-27T00:36:07.163Z,12.10
2018-08-27T00:38:35.880Z,12.10
2018-08-27T00:41:05.182Z,12.10
2018-08-27T00:43:33.829Z,12.00
2018-08-27T00:46:02.790Z,12.00
2018-08-27T00:48:31.443Z,11.90
2018-08-27T00:51:00.094Z,11.90
2018-08-27T00:53:29.003Z,11.90
2018-08-27T00:55:57.651Z,11.90
2018-08-27T00:58:26.336Z,11.90
2018-08-27T01:00:55.158Z,12.00
2018-08-27T01:03:24.394Z,12.00
2018-08-27T01:05:53.011Z,12.00
2018-08-27T01:08:21.657Z,12.00
2018-08-27T01:10:50.548Z,11.90
2018-08-27T01:13:19.533Z,12.00
2018-08-27T01:15:48.173Z,12.10
2018-08-27T01:18:17.161Z,12.10
2018-08-27T01:20:46.092Z,12.20
2018-08-27T01:23:14.988Z,12.10
2018-08-27T01:25:43.928Z,12.10
2018-08-27T01:28:13.076Z,12.10
2018-08-27T01:30:42.069Z,12.10
2018-08-27T01:33:10.975Z,12.20
2018-08-27T01:35:39.694Z,12.20
2018-08-27T01:38:08.461Z,12.20
2018-08-27T01:40:37.162Z,12.30
2018-08-27T01:43:06.117Z,12.30
2018-08-27T01:45:35.054Z,12.30
2018-08-27T01:48:03.962Z,12.40
2018-08-27T01:50:32.653Z,12.40
2018-08-27T01:53:01.293Z,12.50
2018-08-27T01:55:29.980Z,12.60
2018-08-27T01:57:58.724Z,12.60
2018-08-27T02:00:27.389Z,12.60
2018-08-27T02:02:56.401Z,12.50
2018-08-27T02:05:25.148Z,12.50
2018-08-27T02:07:54.141Z,12.50
2018-08-27T02:10:23.117Z,12.50
2018-08-27T02:12:51.757Z,12.50
2018-08-27T02:15:20.477Z,12.50
2018-08-27T02:17:49.129Z,12.50
2018-08-27T02:20:17.816Z,12.60
2018-08-27T02:22:46.517Z,12.60
2018-08-27T02:25:15.204Z,12.60
2018-08-27T02:27:43.884Z,12.70
2018-08-27T02:30:12.851Z,12.60
2018-08-27T02:32:41.611Z,12.60
2018-08-27T02:35:10.542Z,12.60
2018-08-27T02:37:39.597Z,12.60
2018-08-27T02:40:08.345Z,12.60
2018-08-27T02:42:37.016Z,12.60
2018-08-27T02:45:06.188Z,12.60
2018-08-27T02:47:34.993Z,12.60
2018-08-27T02:50:04.168Z,12.60
2018-08-27T02:52:32.864Z,12.70
2018-08-27T02:55:01.870Z,12.70
2018-08-27T02:57:30.472Z,12.80
2018-08-27T03:00:00.564Z,12.80
2018-08-27T03:02:29.196Z,12.90
2018-08-27T03:04:57.865Z,12.80
2018-08-27T03:07:26.600Z,12.80
2018-08-27T03:09:56.711Z,12.80
2018-08-27T03:12:25.466Z,12.80
2018-08-27T03:14:54.122Z,12.80
2018-08-27T03:17:22.860Z,12.80
2018-08-27T03:19:51.640Z,12.80
2018-08-27T03:22:20.276Z,12.80
2018-08-27T03:24:48.913Z,12.80
2018-08-27T03:27:17.529Z,12.80
2018-08-27T03:29:46.291Z,12.80
2018-08-27T03:32:15.264Z,12.90
2018-08-27T03:34:44.445Z,12.90
2018-08-27T03:37:13.485Z,12.90
2018-08-27T03:39:42.161Z,12.90
2018-08-27T03:42:11.165Z,12.90
2018-08-27T03:44:39.857Z,12.90
2018-08-27T03:47:08.553Z,12.90
2018-08-27T03:49:37.225Z,12.90
2018-08-27T03:52:05.962Z,12.90
2018-08-27T03:54:34.655Z,13.00
2018-08-27T03:57:03.405Z,13.00
2018-08-27T03:59:32.045Z,13.00
2018-08-27T04:02:00.716Z,12.90
2018-08-27T04:04:29.383Z,12.90
2018-08-27T04:06:58.007Z,12.90
2018-08-27T04:09:26.771Z,12.90
2018-08-27T04:11:55.373Z,12.90
2018-08-27T04:14:24.141Z,12.90
2018-08-27T04:16:53.001Z,12.90
2018-08-27T04:19:21.741Z,13.00
2018-08-27T04:21:50.429Z,13.00
2018-08-27T04:24:19.508Z,13.00
2018-08-27T04:26:48.301Z,13.00
2018-08-27T04:29:16.984Z,13.00
2018-08-27T04:31:45.653Z,12.90
2018-08-27T04:34:14.442Z,12.90
2018-08-27T04:36:43.486Z,12.90
2018-08-27T04:39:12.824Z,12.90
2018-08-27T04:41:41.469Z,12.90
2018-08-27T04:44:10.725Z,12.90
2018-08-27T04:46:39.433Z,13.00
2018-08-27T04:49:08.212Z,13.00
2018-08-27T04:51:37.161Z,13.10
2018-08-27T04:54:06.485Z,13.10
2018-08-27T04:56:35.233Z,13.20
2018-08-27T04:59:14.738Z,13.20
2018-08-27T05:01:43.582Z,13.30
2018-08-27T05:04:12.636Z,13.40
2018-08-27T05:06:41.288Z,13.50
2018-08-27T05:09:10.863Z,13.60
2018-08-27T05:11:40.440Z,13.60
2018-08-27T05:14:10.701Z,13.60
2018-08-27T05:16:39.416Z,13.60
2018-08-27T05:19:08.733Z,13.60
2018-08-27T05:21:37.365Z,13.70
2018-08-27T05:24:06.573Z,13.70
2018-08-27T05:26:35.604Z,13.80
2018-08-27T05:29:04.351Z,13.80
2018-08-27T05:31:33.085Z,13.90
2018-08-27T05:34:02.024Z,14.00
2018-08-27T05:36:30.767Z,14.10
2018-08-27T05:38:59.461Z,14.30
2018-08-27T05:41:28.342Z,14.40
2018-08-27T05:43:57.279Z,14.50
2018-08-27T05:46:26.104Z,14.50
2018-08-27T05:48:54.828Z,14.60
2018-08-27T05:51:23.542Z,14.70
2018-08-27T05:53:52.224Z,14.90
2018-08-27T05:56:20.961Z,14.90
2018-08-27T05:58:49.613Z,14.90
2018-08-27T06:01:18.375Z,14.90
2018-08-27T06:03:47.065Z,15.00
2018-08-27T06:06:15.753Z,15.10
2018-08-27T06:08:45.057Z,15.10
2018-08-27T06:11:13.813Z,15.20
2018-08-27T06:13:42.517Z,15.30
2018-08-27T06:16:11.251Z,15.40
2018-08-27T06:18:39.853Z,15.40
2018-08-27T06:21:08.472Z,15.40
2018-08-27T06:23:37.375Z,15.50
2018-08-27T06:26:06.337Z,15.60
2018-08-27T06:28:34.965Z,15.60
2018-08-27T06:31:03.942Z,15.70
2018-08-27T06:33:32.613Z,15.80
2018-08-27T06:36:01.244Z,15.80
2018-08-27T06:38:29.929Z,16.00
2018-08-27T06:40:58.764Z,16.10
2018-08-27T06:43:27.432Z,16.20
2018-08-27T06:45:56.119Z,16.30
2018-08-27T06:48:24.840Z,16.30
2018-08-27T06:50:53.505Z,16.40
2018-08-27T06:53:22.170Z,16.40
2018-08-27T06:55:50.796Z,16.50
2018-08-27T06:58:19.454Z,16.50
2018-08-27T07:00:48.204Z,16.50
2018-08-27T07:03:17.079Z,16.60
2018-08-27T07:05:45.766Z,16.80
2018-08-27T07:08:15.278Z,17.00
2018-08-27T07:10:43.920Z,17.10
2018-08-27T07:13:12.592Z,17.40
2018-08-27T07:15:41.524Z,17.50
2018-08-27T07:18:10.157Z,17.70
2018-08-27T07:20:39.124Z,17.70
2018-08-27T07:23:08.172Z,17.90
2018-08-27T07:25:37.148Z,18.10
2018-08-27T07:28:06.170Z,18.30
2018-08-27T07:30:35.081Z,18.50
2018-08-27T07:33:03.788Z,18.60
2018-08-27T07:35:32.761Z,18.60
2018-08-27T07:38:01.361Z,18.70
2018-08-27T07:40:30.109Z,18.80
2018-08-27T07:42:58.733Z,19.10
2018-08-27T07:45:27.736Z,19.30
2018-08-27T07:47:56.525Z,19.50
2018-08-27T07:50:25.436Z,19.60
2018-08-27T07:52:54.064Z,19.70
2018-08-27T07:55:22.809Z,19.80
2018-08-27T07:57:51.549Z,20.00
2018-08-27T08:00:24.324Z,20.20
2018-08-27T08:02:54.706Z,20.20
2018-08-27T08:05:23.437Z,20.20
2018-08-27T08:07:52.629Z,20.60
2018-08-27T08:10:21.677Z,20.70
2018-08-27T08:12:51.973Z,20.80
2018-08-27T08:15:21.582Z,20.70
2018-08-27T08:17:50.528Z,20.60
2018-08-27T08:20:19.608Z,20.60
2018-08-27T08:22:48.433Z,20.60
2018-08-27T08:25:17.005Z,20.50
2018-08-27T08:27:45.754Z,20.40
2018-08-27T08:30:14.407Z,20.50
2018-08-27T08:32:43.100Z,20.20
2018-08-27T08:35:11.790Z,20.10
2018-08-27T08:37:40.457Z,20.10
2018-08-27T08:40:09.300Z,20.10
2018-08-27T08:42:37.937Z,20.20
2018-08-27T08:45:06.650Z,20.20
2018-08-27T08:47:35.398Z,20.30
2018-08-27T08:50:04.097Z,20.50
2018-08-27T08:52:32.729Z,20.80
2018-08-27T08:55:01.378Z,21.10
2018-08-27T08:57:31.057Z,21.30
2018-08-27T08:59:59.724Z,21.40
2018-08-27T09:02:28.445Z,21.40
2018-08-27T09:04:57.141Z,21.30
2018-08-27T09:07:25.816Z,21.40
2018-08-27T09:09:54.473Z,21.50
2018-08-27T09:12:23.414Z,21.60
2018-08-27T09:14:52.046Z,21.80
2018-08-27T09:17:20.790Z,21.90
2018-08-27T09:19:49.572Z,22.10
2018-08-27T09:22:18.330Z,22.00
2018-08-27T09:24:46.990Z,22.00
2018-08-27T09:27:15.683Z,21.80
2018-08-27T09:29:44.376Z,21.70
2018-08-27T09:32:13.151Z,21.80
2018-08-27T09:34:41.835Z,22.00
2018-08-27T09:37:10.587Z,22.20
2018-08-27T09:39:39.237Z,22.50
2018-08-27T09:42:07.895Z,22.80
2018-08-27T09:44:36.573Z,23.00
2018-08-27T09:47:06.869Z,22.90
2018-08-27T09:49:36.419Z,22.60
2018-08-27T09:52:05.133Z,22.40
2018-08-27T09:54:33.773Z,22.20
2018-08-27T09:57:02.376Z,22.20
2018-08-27T09:59:31.085Z,22.10
2018-08-27T10:02:01.351Z,21.60
2018-08-27T10:04:30.070Z,20.40
2018-08-27T10:06:59.025Z,19.90
2018-08-27T10:09:27.736Z,19.90
2018-08-27T10:11:56.420Z,20.20
2018-08-27T10:14:25.881Z,20.70
2018-08-27T10:16:54.631Z,21.20
2018-08-27T10:19:23.484Z,21.60
2018-08-27T10:21:52.146Z,21.80
2018-08-27T10:24:20.768Z,21.70
2018-08-27T10:26:49.689Z,21.80
2018-08-27T10:29:18.401Z,22.00
2018-08-27T10:31:47.128Z,22.10
2018-08-27T10:34:15.895Z,21.70
2018-08-27T10:36:45.191Z,21.60
2018-08-27T10:39:13.889Z,21.40
2018-08-27T10:41:42.585Z,21.50
2018-08-27T10:44:11.420Z,21.60
2018-08-27T10:46:40.161Z,21.80
2018-08-27T10:49:08.840Z,21.70
2018-08-27T10:51:37.529Z,21.80
2018-08-27T10:54:06.448Z,21.80
2018-08-27T10:56:35.168Z,21.70
2018-08-27T10:59:03.920Z,21.70
2018-08-27T11:01:32.757Z,21.70
2018-08-27T11:04:01.604Z,21.50
2018-08-27T11:06:30.315Z,21.40
2018-08-27T11:08:59.065Z,21.40
2018-08-27T11:11:27.709Z,21.50
2018-08-27T11:13:56.391Z,21.40
2018-08-27T11:16:25.165Z,20.90
2018-08-27T11:18:53.859Z,20.40
2018-08-27T11:21:22.650Z,20.30
2018-08-27T11:23:52.765Z,20.70
2018-08-27T11:26:22.907Z,21.00
2018-08-27T11:28:51.773Z,21.30
2018-08-27T11:31:20.442Z,21.50
2018-08-27T11:33:49.273Z,21.80
2018-08-27T11:36:18.250Z,22.10
2018-08-27T11:38:47.123Z,22.40
2018-08-27T11:41:15.784Z,22.50
2018-08-27T11:43:44.936Z,22.80
2018-08-27T11:46:13.573Z,23.40
2018-08-27T11:48:42.196Z,23.80
2018-08-27T11:51:10.879Z,23.90
2018-08-27T11:53:39.579Z,23.70
2018-08-27T11:56:08.254Z,23.70
2018-08-27T11:58:37.239Z,23.90
2018-08-27T12:01:07.789Z,24.00
2018-08-27T12:03:36.613Z,24.10
2018-08-27T12:06:05.280Z,24.10
2018-08-27T12:08:34.280Z,24.00
2018-08-27T12:11:03.111Z,24.00
2018-08-27T12:13:31.820Z,23.90
2018-08-27T12:16:00.774Z,23.90
2018-08-27T12:18:30.284Z,23.90
2018-08-27T12:20:59.441Z,24.10
2018-08-27T12:23:28.386Z,24.40
2018-08-27T12:25:57.288Z,24.90
2018-08-27T12:28:26.356Z,25.10
2018-08-27T12:30:55.258Z,25.20
2018-08-27T12:33:24.634Z,25.00
2018-08-27T12:35:53.820Z,24.70
2018-08-27T12:38:22.699Z,24.60
2018-08-27T12:40:51.541Z,24.80
2018-08-27T12:43:20.172Z,25.00
2018-08-27T12:45:48.811Z,25.10
2018-08-27T12:48:17.472Z,25.00
2018-08-27T12:50:46.095Z,24.70
2018-08-27T12:53:15.081Z,24.80
2018-08-27T12:55:43.731Z,25.10
2018-08-27T12:58:12.537Z,25.10
2018-08-27T13:00:41.234Z,25.50
2018-08-27T13:03:09.889Z,25.50
2018-08-27T13:05:39.077Z,25.60
2018-08-27T13:08:07.813Z,25.60
2018-08-27T13:10:36.336Z,25.40
2018-08-27T13:13:05.353Z,25.50
2018-08-27T13:15:34.133Z,25.50
2018-08-27T13:18:02.748Z,25.50
2018-08-27T13:20:31.485Z,25.30
2018-08-27T13:23:00.280Z,25.10
2018-08-27T13:25:29.482Z,25.20
2018-08-27T13:27:58.200Z,25.80
2018-08-27T13:30:27.146Z,26.30
2018-08-27T13:32:55.863Z,26.90
2018-08-27T13:35:24.567Z,26.60
2018-08-27T13:37:53.224Z,26.20
2018-08-27T13:40:21.986Z,26.40
2018-08-27T13:42:50.620Z,26.60
2018-08-27T13:45:19.352Z,26.60
2018-08-27T13:47:48.048Z,26.40
2018-08-27T13:50:16.778Z,26.30
2018-08-27T13:52:45.488Z,26.30
2018-08-27T13:55:14.178Z,26.20
2018-08-27T13:57:42.980Z,25.80
2018-08-27T14:00:17.329Z,25.90
2018-08-27T14:02:46.025Z,26.20
2018-08-27T14:05:14.701Z,27.10
2018-08-27T14:07:43.528Z,27.80
2018-08-27T14:10:12.398Z,27.60
2018-08-27T14:12:41.365Z,27.90
2018-08-27T14:15:10.242Z,28.90
2018-08-27T14:17:39.105Z,29.70
2018-08-27T14:20:08.085Z,29.10
2018-08-27T14:22:36.998Z,28.90
2018-08-27T14:25:06.292Z,28.70
2018-08-27T14:27:35.589Z,28.60
2018-08-27T14:30:04.481Z,28.20
2018-08-27T14:32:33.250Z,28.30
2018-08-27T14:35:01.853Z,28.10
2018-08-27T14:37:30.636Z,28.30
2018-08-27T14:39:59.460Z,28.00
2018-08-27T14:42:28.178Z,28.00
2018-08-27T14:44:57.366Z,28.70
2018-08-27T14:47:26.261Z,29.40
2018-08-27T14:49:55.282Z,29.60
2018-08-27T14:52:24.048Z,29.60
2018-08-27T14:54:52.748Z,29.50
2018-08-27T14:57:21.634Z,29.30
2018-08-27T14:59:50.456Z,29.00
2018-08-27T15:02:19.088Z,29.60
2018-08-27T15:04:48.141Z,29.70
2018-08-27T15:07:17.530Z,29.80
2018-08-27T15:09:46.357Z,29.20
2018-08-27T15:12:14.921Z,27.80
2018-08-27T15:14:43.617Z,26.60
2018-08-27T15:17:12.375Z,25.80
2018-08-27T15:19:41.124Z,25.40
2018-08-27T15:22:10.589Z,25.30
2018-08-27T15:24:39.229Z,25.30
2018-08-27T15:27:07.891Z,25.00
2018-08-27T15:29:36.529Z,24.60
2018-08-27T15:32:05.201Z,24.40
2018-08-27T15:34:33.896Z,24.30
2018-08-27T15:37:02.654Z,24.40
2018-08-27T15:39:31.504Z,24.20
2018-08-27T15:42:00.226Z,24.10
2018-08-27T15:44:29.084Z,24.00
2018-08-27T15:46:57.785Z,24.00
2018-08-27T15:49:26.488Z,23.80
2018-08-27T15:51:55.115Z,23.60
2018-08-27T15:54:23.776Z,23.40
2018-08-27T15:56:52.449Z,23.40
2018-08-27T15:59:21.246Z,23.40
2018-08-27T16:01:49.922Z,23.40
2018-08-27T16:04:18.735Z,23.40
2018-08-27T16:06:47.494Z,23.40
2018-08-27T16:09:16.391Z,23.40
2018-08-27T16:11:45.054Z,23.30
2018-08-27T16:14:13.741Z,23.20
2018-08-27T16:16:42.388Z,23.40
2018-08-27T16:19:11.106Z,23.50
2018-08-27T16:21:39.796Z,23.60
2018-08-27T16:24:08.492Z,24.00
2018-08-27T16:26:40.674Z,24.70
2018-08-27T16:29:09.794Z,24.50
2018-08-27T16:31:38.524Z,24.10
2018-08-27T16:34:07.705Z,24.00
2018-08-27T16:36:37.452Z,23.90
2018-08-27T16:39:07.484Z,23.70
2018-08-27T16:41:36.804Z,23.70
2018-08-27T16:44:05.405Z,24.30
2018-08-27T16:46:34.048Z,25.10
2018-08-27T16:49:03.148Z,24.90
2018-08-27T16:51:31.825Z,24.50
2018-08-27T16:54:00.774Z,24.20
2018-08-27T16:56:29.564Z,23.90
2018-08-27T16:58:58.337Z,23.50
2018-08-27T17:01:27.105Z,23.10
2018-08-27T17:03:56.039Z,22.80
2018-08-27T17:06:24.728Z,22.70
2018-08-27T17:08:53.503Z,22.50
2018-08-27T17:11:22.197Z,22.40
2018-08-27T17:13:50.912Z,22.30
2018-08-27T17:16:19.936Z,22.20
2018-08-27T17:18:48.561Z,22.20
2018-08-27T17:21:17.300Z,22.20
2018-08-27T17:23:45.877Z,22.20
2018-08-27T17:26:15.130Z,22.20
2018-08-27T17:28:43.977Z,22.20
2018-08-27T17:31:12.700Z,22.20
2018-08-27T17:33:41.779Z,22.10
2018-08-27T17:36:10.717Z,22.10
2018-08-27T17:38:39.741Z,22.00
2018-08-27T17:41:09.621Z,22.00
2018-08-27T17:43:38.273Z,22.00
2018-08-27T17:46:06.971Z,21.90
2018-08-27T17:48:38.573Z,21.80
2018-08-27T17:51:07.269Z,21.70
2018-08-27T17:53:36.070Z,21.60
2018-08-27T17:56:04.729Z,21.50
2018-08-27T17:58:33.388Z,21.50
2018-08-27T18:01:02.419Z,21.40
2018-08-27T18:03:31.082Z,21.40
2018-08-27T18:05:59.768Z,21.40
2018-08-27T18:08:28.477Z,21.40
2018-08-27T18:10:57.473Z,21.40
2018-08-27T18:13:26.141Z,21.40
2018-08-27T18:15:54.842Z,21.30
2018-08-27T18:18:23.530Z,21.30
2018-08-27T18:20:52.236Z,21.30
2018-08-27T18:23:21.104Z,21.20
2018-08-27T18:25:50.102Z,21.20
2018-08-27T18:28:18.944Z,21.20
2018-08-27T18:30:47.652Z,21.20
2018-08-27T18:33:16.373Z,21.10
2018-08-27T18:35:45.141Z,21.10
2018-08-27T18:38:13.872Z,21.10
2018-08-27T18:40:42.700Z,21.00
2018-08-27T18:43:11.400Z,21.00
2018-08-27T18:45:40.186Z,21.00
2018-08-27T18:48:08.935Z,21.00
2018-08-27T18:50:37.556Z,20.90
2018-08-27T18:53:06.325Z,20.80
2018-08-27T18:55:35.259Z,20.70
2018-08-27T18:58:03.897Z,20.70
2018-08-27T19:00:32.837Z,20.60
2018-08-27T19:03:01.574Z,20.60
2018-08-27T19:05:30.262Z,20.60
2018-08-27T19:07:58.890Z,20.60
2018-08-27T19:10:27.570Z,20.60
2018-08-27T19:12:56.331Z,20.50
2018-08-27T19:15:24.961Z,20.40
2018-08-27T19:17:53.645Z,20.30
2018-08-27T19:20:22.321Z,20.20
2018-08-27T19:22:50.997Z,20.10
2018-08-27T19:25:19.683Z,20.00
2018-08-27T19:27:48.933Z,19.90
2018-08-27T19:30:20.309Z,19.90
2018-08-27T19:32:50.100Z,19.90
2018-08-27T19:35:18.817Z,19.80
2018-08-27T19:37:47.568Z,19.60
2018-08-27T19:40:17.393Z,19.50
2018-08-27T19:42:46.109Z,19.40
2018-08-27T19:45:14.777Z,19.40
2018-08-27T19:47:43.529Z,19.40
2018-08-27T19:50:13.179Z,19.30
2018-08-27T19:52:41.868Z,19.30
2018-08-27T19:55:10.543Z,19.30
2018-08-27T19:57:39.313Z,19.30
2018-08-27T20:00:08.094Z,19.30
2018-08-27T20:02:36.798Z,19.30
2018-08-27T20:05:05.573Z,19.30
2018-08-27T20:07:34.297Z,19.30
2018-08-27T20:10:02.960Z,19.30
2018-08-27T20:12:31.640Z,19.20
2018-08-27T20:15:00.288Z,19.10
2018-08-27T20:17:29.979Z,19.10
2018-08-27T20:19:58.661Z,19.10
2018-08-27T20:22:27.340Z,19.10
2018-08-27T20:24:56.064Z,19.00
2018-08-27T20:27:24.768Z,19.00
2018-08-27T20:29:53.644Z,19.00
2018-08-27T20:32:22.344Z,19.00
2018-08-27T20:34:51.045Z,18.90
2018-08-27T20:37:19.700Z,18.90
2018-08-27T20:39:48.455Z,18.90
2018-08-27T20:42:17.369Z,19.00
2018-08-27T20:44:46.092Z,18.90
2018-08-27T20:47:15.163Z,19.00
2018-08-27T20:49:43.811Z,18.90
2018-08-27T20:52:12.461Z,18.90
2018-08-27T20:54:41.393Z,18.90
2018-08-27T20:57:10.058Z,18.80
2018-08-27T20:59:38.690Z,18.80
2018-08-27T21:02:07.388Z,18.70
2018-08-27T21:04:36.066Z,18.60
2018-08-27T21:07:04.893Z,18.60
2018-08-27T21:09:33.673Z,18.40
2018-08-27T21:12:02.351Z,18.30
2018-08-27T21:15:11.755Z,18.30
2018-08-27T21:17:41.179Z,18.40
2018-08-27T21:20:11.841Z,18.40
2018-08-27T21:22:40.644Z,18.40
2018-08-27T21:25:09.995Z,18.30
2018-08-27T21:27:39.301Z,18.30
2018-08-27T21:30:09.598Z,18.20
2018-08-27T21:32:38.260Z,18.20
2018-08-27T21:35:07.019Z,18.20
2018-08-27T21:37:35.738Z,18.20
2018-08-27T21:40:04.558Z,18.30
2018-08-27T21:42:33.442Z,18.30
2018-08-27T21:45:02.462Z,18.30
2018-08-27T21:47:31.163Z,18.30
2018-08-27T21:49:59.929Z,18.30
2018-08-27T21:52:28.577Z,18.30
2018-08-27T21:54:57.256Z,18.30
2018-08-27T21:57:25.957Z,18.20
2018-08-27T21:59:54.768Z,18.20
2018-08-27T22:02:28.554Z,18.20
2018-08-27T22:04:57.926Z,18.20
2018-08-27T22:07:26.609Z,18.10
2018-08-27T22:09:55.372Z,18.10
2018-08-27T22:12:24.326Z,18.10
2018-08-27T22:14:53.451Z,18.00
2018-08-27T22:17:22.072Z,17.90
2018-08-27T22:19:51.031Z,17.90
2018-08-27T22:22:19.769Z,17.90
2018-08-27T22:24:48.341Z,17.90
2018-08-27T22:27:17.055Z,18.00
2018-08-27T22:29:45.998Z,18.00
2018-08-27T22:32:15.045Z,18.00
2018-08-27T22:34:43.770Z,18.00
2018-08-27T22:37:12.665Z,18.10
2018-08-27T22:39:42.021Z,18.10
2018-08-27T22:42:10.973Z,18.10
2018-08-27T22:44:39.888Z,18.10
2018-08-27T22:47:10.708Z,18.00
2018-08-27T22:49:40.994Z,18.00
2018-08-27T22:52:09.732Z,18.00
2018-08-27T22:54:38.564Z,18.00
2018-08-27T22:57:07.724Z,18.00
2018-08-27T22:59:36.600Z,18.00
2018-08-27T23:02:05.504Z,17.90
2018-08-27T23:04:39.358Z,17.90
2018-08-27T23:07:08.780Z,17.90
2018-08-27T23:09:37.877Z,17.90
2018-08-27T23:12:06.614Z,17.90
2018-08-27T23:14:35.441Z,17.90
2018-08-27T23:17:04.380Z,17.90
2018-08-27T23:19:33.294Z,17.90
2018-08-27T23:22:02.036Z,18.00
2018-08-27T23:24:31.189Z,18.00
2018-08-27T23:27:00.120Z,18.00
2018-08-27T23:29:28.740Z,18.10
2018-08-27T23:31:57.601Z,18.00
2018-08-27T23:34:26.464Z,18.00
2018-08-27T23:36:55.118Z,18.10
2018-08-27T23:39:24.137Z,18.10
2018-08-27T23:41:52.801Z,18.00
2018-08-27T23:44:21.500Z,17.90
2018-08-27T23:46:50.170Z,17.90
2018-08-27T23:49:18.881Z,17.90
2018-08-27T23:51:47.689Z,18.00
2018-08-27T23:54:16.537Z,18.00
2018-08-27T23:56:45.256Z,18.00
2018-08-27T23:59:13.928Z,18.00
